createdAt,value
2023-10-06T00:03:18.778Z,12.38
2023-10-06T00:08:22.894Z,12.23
2023-10-06T00:13:30.504Z,12.00
2023-10-06T00:18:37.467Z,11.45
2023-10-06T00:23:43.928Z,11.97
2023-10-06T00:28:48.763Z,11.68
2023-10-06T00:33:53.777Z,11.05
2023-10-06T00:38:57.839Z,10.60
2023-10-06T00:44:03.639Z,10.85
2023-10-06T00:49:08.739Z,11.23
2023-10-06T00:54:12.367Z,10.75
2023-10-06T00:59:18.121Z,11.02
2023-10-06T01:04:26.050Z,10.73
2023-10-06T01:09:32.380Z,10.13
2023-10-06T01:14:37.243Z,10.68
2023-10-06T01:19:48.695Z,10.05
2023-10-06T01:24:55.566Z,10.23
2023-10-06T01:30:19.207Z,9.93
2023-10-06T01:35:25.173Z,9.65
2023-10-06T01:40:44.940Z,10.03
2023-10-06T01:45:48.687Z,9.98
2023-10-06T01:50:55.886Z,10.10
2023-10-06T01:56:02.583Z,9.43
2023-10-06T02:01:09.488Z,9.33
2023-10-06T02:06:17.691Z,9.80
2023-10-06T02:11:32.048Z,9.68
2023-10-06T02:16:36.564Z,9.15
2023-10-06T02:21:45.643Z,8.68
2023-10-06T02:26:58.495Z,9.00
2023-10-06T02:32:07.536Z,8.90
2023-10-06T02:37:11.661Z,8.70
2023-10-06T02:42:20.588Z,8.82
2023-10-06T02:47:28.434Z,8.43
2023-10-06T02:52:38.446Z,8.40
2023-10-06T02:57:52.003Z,8.15
2023-10-06T03:02:57.555Z,8.23
2023-10-06T03:08:03.092Z,7.38
2023-10-06T03:13:09.844Z,7.78
2023-10-06T03:18:14.841Z,7.33
2023-10-06T03:23:27.976Z,8.02
2023-10-06T03:28:37.744Z,7.63
2023-10-06T03:33:41.880Z,7.38
2023-10-06T03:38:55.182Z,7.45
2023-10-06T03:44:02.664Z,7.55
2023-10-06T03:49:09.046Z,7.55
2023-10-06T03:54:13.328Z,6.88
2023-10-06T03:59:18.501Z,7.53
2023-10-06T04:04:23.791Z,6.63
2023-10-06T04:09:30.248Z,7.03
2023-10-06T04:14:36.676Z,7.28
2023-10-06T04:19:40.134Z,7.32
2023-10-06T04:24:43.624Z,7.10
2023-10-06T04:29:50.740Z,7.03
2023-10-06T04:34:54.231Z,6.78
2023-10-06T04:39:57.879Z,6.70
2023-10-06T04:45:07.995Z,6.78
2023-10-06T04:50:13.618Z,6.45
2023-10-06T04:55:17.856Z,6.50
2023-10-06T05:00:23.225Z,6.22
2023-10-06T05:05:27.987Z,6.18
2023-10-06T05:10:32.444Z,5.60
2023-10-06T05:15:38.247Z,6.07
2023-10-06T05:20:43.569Z,6.25
2023-10-06T05:25:47.107Z,6.00
2023-10-06T05:30:52.134Z,5.70
2023-10-06T05:35:55.725Z,5.97
2023-10-06T05:41:02.872Z,6.03
2023-10-06T05:46:07.910Z,5.78
2023-10-06T05:51:12.510Z,5.60
2023-10-06T05:56:17.021Z,5.65
2023-10-06T06:01:22.585Z,5.35
2023-10-06T06:06:27.560Z,5.70
2023-10-06T06:11:32.471Z,5.30
2023-10-06T06:16:37.304Z,5.43
2023-10-06T06:21:40.952Z,4.72
2023-10-06T06:26:44.675Z,5.35
2023-10-06T06:31:54.077Z,5.40
2023-10-06T06:36:57.712Z,4.95
2023-10-06T06:42:01.132Z,5.03
2023-10-06T06:47:09.148Z,5.05
2023-10-06T06:52:13.480Z,5.68
2023-10-06T06:57:18.248Z,6.03
2023-10-06T07:02:23.100Z,8.10
2023-10-06T07:07:26.625Z,7.40
2023-10-06T07:12:30.099Z,6.97
2023-10-06T07:17:35.089Z,6.80
2023-10-06T07:22:38.633Z,5.95
2023-10-06T07:27:42.339Z,6.18
2023-10-06T07:32:48.021Z,5.78
2023-10-06T07:37:52.550Z,5.10
2023-10-06T07:42:57.269Z,5.00
2023-10-06T07:48:02.304Z,4.97
2023-10-06T07:53:06.171Z,4.60
2023-10-06T07:58:09.760Z,4.40
2023-10-06T08:03:14.688Z,4.50
2023-10-06T08:08:18.161Z,3.90
2023-10-06T08:13:21.994Z,4.00
2023-10-06T08:18:29.378Z,4.07
2023-10-06T08:23:33.692Z,3.83
2023-10-06T08:28:37.297Z,3.92
2023-10-06T08:33:42.288Z,3.42
2023-10-06T08:38:47.809Z,3.17
2023-10-06T08:43:54.710Z,3.85
2023-10-06T08:49:00.400Z,3.43
2023-10-06T08:54:06.329Z,3.40
2023-10-06T08:59:09.923Z,3.50
2023-10-06T09:04:15.985Z,3.70
2023-10-06T09:09:28.360Z,4.05
2023-10-06T09:14:31.970Z,7.53
2023-10-06T09:19:50.038Z,7.20
2023-10-06T09:25:05.948Z,7.40
2023-10-06T09:30:13.338Z,6.78
2023-10-06T09:35:26.722Z,6.50
2023-10-06T09:40:33.292Z,6.30
2023-10-06T09:45:38.333Z,5.68
2023-10-06T09:50:47.708Z,5.20
2023-10-06T09:55:51.687Z,4.75
2023-10-06T10:00:56.271Z,3.70
2023-10-06T10:06:05.527Z,3.47
2023-10-06T10:11:15.828Z,3.20
2023-10-06T10:16:48.944Z,3.20
2023-10-06T10:21:56.711Z,3.15
2023-10-06T10:27:00.738Z,2.80
2023-10-06T10:32:16.882Z,3.05
2023-10-06T10:37:27.161Z,3.40
2023-10-06T10:42:43.790Z,4.03
2023-10-06T10:47:48.365Z,4.35
2023-10-06T10:52:55.797Z,3.50
2023-10-06T10:57:59.315Z,3.15
2023-10-06T11:03:05.983Z,2.88
2023-10-06T11:08:12.237Z,2.90
2023-10-06T11:13:21.071Z,2.92
2023-10-06T11:18:24.652Z,2.83
2023-10-06T11:23:44.983Z,2.50
2023-10-06T11:28:48.542Z,2.42
2023-10-06T11:33:52.571Z,2.42
2023-10-06T11:38:57.407Z,2.53
2023-10-06T11:44:02.571Z,2.65
2023-10-06T11:49:11.481Z,2.50
2023-10-06T11:54:16.724Z,2.37
2023-10-06T11:59:25.293Z,2.30
2023-10-06T12:04:32.550Z,2.33
2023-10-06T12:09:39.789Z,2.53
2023-10-06T12:14:43.408Z,2.27
2023-10-06T12:19:46.957Z,2.13
2023-10-06T12:24:51.781Z,2.30
2023-10-06T12:29:56.776Z,2.10
2023-10-06T12:35:01.120Z,2.20
2023-10-06T12:40:10.088Z,1.90
2023-10-06T12:45:19.093Z,2.28
2023-10-06T12:50:24.807Z,2.17
2023-10-06T12:55:30.199Z,2.10
2023-10-06T13:00:33.707Z,1.90
2023-10-06T13:05:37.381Z,2.25
2023-10-06T13:10:42.781Z,1.90
2023-10-06T13:15:47.317Z,2.47
2023-10-06T13:20:50.799Z,2.30
2023-10-06T13:25:59.324Z,2.05
2023-10-06T13:31:05.817Z,2.35
2023-10-06T13:36:10.251Z,2.20
2023-10-06T13:41:15.220Z,2.10
2023-10-06T13:46:19.594Z,2.10
2023-10-06T13:51:23.292Z,2.25
2023-10-06T13:56:28.827Z,2.50
2023-10-06T14:01:34.618Z,2.42
2023-10-06T14:06:38.143Z,2.40
2023-10-06T14:11:43.019Z,2.60
2023-10-06T14:16:47.523Z,2.50
2023-10-06T14:21:51.794Z,2.50
2023-10-06T14:26:59.975Z,2.33
2023-10-06T14:32:19.731Z,2.20
2023-10-06T14:37:37.654Z,2.30
2023-10-06T14:42:59.973Z,2.60
2023-10-06T14:48:05.631Z,2.30
2023-10-06T14:53:11.496Z,2.47
2023-10-06T14:58:16.368Z,2.50
2023-10-06T15:03:19.967Z,2.35
2023-10-06T15:08:24.223Z,2.10
2023-10-06T15:13:29.762Z,2.83
2023-10-06T15:18:33.834Z,2.08
2023-10-06T15:23:37.947Z,2.50
2023-10-06T15:28:43.842Z,2.70
2023-10-06T15:33:47.478Z,2.67
2023-10-06T15:38:50.937Z,2.60
2023-10-06T15:43:55.783Z,2.50
2023-10-06T15:49:00.028Z,2.67
2023-10-06T15:54:06.952Z,2.63
2023-10-06T15:59:15.492Z,2.27
2023-10-06T16:04:20.676Z,2.45
2023-10-06T16:09:25.105Z,2.55
2023-10-06T16:14:30.237Z,2.47
2023-10-06T16:19:35.760Z,2.53
2023-10-06T16:24:40.249Z,2.60
2023-10-06T16:29:45.198Z,2.53
2023-10-06T16:34:48.887Z,3.78
2023-10-06T16:39:52.779Z,3.92
2023-10-06T16:44:57.645Z,3.60
2023-10-06T16:50:01.263Z,3.50
2023-10-06T16:55:07.238Z,3.53
2023-10-06T17:00:14.015Z,3.50
2023-10-06T17:05:17.587Z,3.70
2023-10-06T17:10:23.999Z,3.95
2023-10-06T17:15:28.919Z,3.70
2023-10-06T17:20:32.437Z,3.50
2023-10-06T17:25:36.963Z,3.22
2023-10-06T17:30:41.986Z,3.22
2023-10-06T17:35:47.510Z,3.15
2023-10-06T17:40:51.324Z,3.05
2023-10-06T17:45:58.923Z,3.13
2023-10-06T17:51:02.550Z,3.20
2023-10-06T17:56:07.095Z,3.40
2023-10-06T18:01:12.159Z,2.90
2023-10-06T18:06:15.854Z,3.03
2023-10-06T18:11:19.382Z,2.88
2023-10-06T18:16:26.340Z,3.10
2023-10-06T18:21:31.455Z,3.08
2023-10-06T18:26:35.700Z,3.00
2023-10-06T18:31:40.723Z,2.88
2023-10-06T18:36:44.430Z,2.90
2023-10-06T18:41:48.499Z,2.90
2023-10-06T18:46:53.483Z,2.70
2023-10-06T18:51:57.048Z,2.90
2023-10-06T18:57:00.672Z,2.72
2023-10-06T19:02:06.004Z,2.78
2023-10-06T19:07:09.703Z,2.97
2023-10-06T19:12:15.651Z,4.18
2023-10-06T19:17:20.507Z,39.50
2023-10-06T19:22:24.570Z,46.47
2023-10-06T19:27:29.066Z,36.88
2023-10-06T19:32:34.968Z,29.67
2023-10-06T19:37:40.048Z,26.15
2023-10-06T19:42:44.357Z,21.15
2023-10-06T19:47:49.458Z,18.65
2023-10-06T19:52:53.201Z,16.88
2023-10-06T19:57:56.905Z,15.40
2023-10-06T20:03:02.081Z,14.05
2023-10-06T20:08:07.194Z,13.68
2023-10-06T20:13:11.407Z,12.38
2023-10-06T20:18:17.571Z,12.68
2023-10-06T20:23:21.900Z,11.57
2023-10-06T20:28:26.092Z,11.32
2023-10-06T20:33:31.222Z,10.80
2023-10-06T20:38:34.740Z,9.68
2023-10-06T20:43:39.958Z,9.77
2023-10-06T20:48:44.931Z,9.07
2023-10-06T20:53:48.478Z,8.77
2023-10-06T20:58:52.037Z,8.70
2023-10-06T21:03:57.566Z,8.52
2023-10-06T21:09:01.074Z,8.30
2023-10-06T21:14:05.167Z,7.85
2023-10-06T21:19:10.430Z,8.30
2023-10-06T21:24:13.995Z,7.68
2023-10-06T21:29:18.126Z,7.45
2023-10-06T21:34:24.163Z,7.55
2023-10-06T21:39:28.734Z,7.03
2023-10-06T21:44:32.234Z,6.55
2023-10-06T21:49:37.731Z,6.35
2023-10-06T21:54:42.879Z,6.63
2023-10-06T21:59:46.510Z,6.75
2023-10-06T22:04:51.399Z,6.30
2023-10-06T22:09:54.906Z,6.55
2023-10-06T22:14:59.228Z,6.00
2023-10-06T22:20:04.994Z,5.60
2023-10-06T22:25:11.352Z,6.30
2023-10-06T22:30:16.555Z,5.88
2023-10-06T22:35:22.810Z,5.60
2023-10-06T22:40:28.860Z,5.63
2023-10-06T22:45:32.784Z,5.20
2023-10-06T22:50:38.412Z,5.68
2023-10-06T22:55:41.993Z,5.65
2023-10-06T23:00:45.571Z,5.40
2023-10-06T23:05:50.557Z,5.22
2023-10-06T23:10:54.411Z,5.05
2023-10-06T23:15:59.046Z,5.03
2023-10-06T23:21:04.078Z,5.00
2023-10-06T23:26:09.884Z,4.72
2023-10-06T23:31:13.577Z,4.90
2023-10-06T23:36:18.594Z,4.40
2023-10-06T23:41:23.048Z,4.85
2023-10-06T23:46:26.899Z,4.32
2023-10-06T23:51:33.713Z,4.57
2023-10-06T23:56:40.247Z,4.57
